Higashi-osaka, Japan
Current Conditions -  °F | °C
As of 8:00 PM on Wednesday 28 Jan 2015 (Local Time) from RJOO Reporting Station
Few Clouds Few Clouds  
Wind Chill: 29°   Ceiling: Unl
Heat Index: 36°   Visibility: 6mi
Dew Point: 25°   Wind: 8mph
Humidity: 65%   Direction: 340°NNW
Pressure: 30.3"   Gusts: NA
Location:  34.67°N, 135.58°E
Report Text: RJOO 281100Z 34007KT 9999 FEW025 02/M04 Q1026
Loading
Personal Weather Stations






























Interactive Weather Map New forecast layout! Learn more

10-Day Weather Forecast

Advertisements
Track Severe Weather on mobile